KOSH/OSH METAR and TAF weather

Enter ICAO airport designator
Station Type Date Time Source
KOSH METAR 2022/11/30 16:53 UTC NOAA

KOSH 301653Z 27013G27KT 8SM -SN OVC035 M04/M09 A2983 RMK AO2 PK WND 29027/1653 SNB02 SLP117 P0000 T10391094


Station Type Date Time Source
KOSH Decoded METAR 2022/11/30 16:53 UTC NOAA

WITTMAN REGIONAL AIRPORT, WI, United States (KOSH) 43-58N 88-33W 248M
Nov 30, 2022 - 11:53 AM EST / 2022.11.30 1653 UTC
Wind: from the W (270 degrees) at 15 MPH (13 KT) gusting to 31 MPH (27 KT):0
Visibility: 8 mile(s):0
Sky conditions: overcast
Weather: light snow
Precipitation last hour: A trace
Temperature: 25.0 F (-3.9 C)
Windchill: 12 F (-11 C):1
Dew Point: 15.1 F (-9.4 C)
Relative Humidity: 65%
Pressure (altimeter): 29.83 in. Hg (1010 hPa)
ob: KOSH 301653Z 27013G27KT 8SM -SN OVC035 M04/M09 A2983 RMK AO2 PK WND 29027/1653 SNB02 SLP117 P0000 T10391094
cycle: 17

Station Type Date Time Source
KOSH TAF 2022/08/04 18:33 UTC NOAA

TAF KOSH 041731Z 0418/0518 05008KT P6SM SCT045
FM050100 08004KT P6SM SKC
FM051600 11005KT P6SM FEW045

Example: see airport list